Dean Reinauer — WDG7107 — position and weather

sailwx.info

Track history (hours):
 
Tides and Currents Weather Stations Pressure Air Temp Water Temp Dewpoint Dewpoint Depression Visibility Wind Speed Wind Dir Waves Ship Positions

Dean Reinauer

Owner: REINAUER TRANSPORTATION CO.,LLC., STATEN ISLAND, NY. More information available from US FCC via Universal Licensing System and Coast Guard Vessel Documentation Center.

Last reported at 2017-Sep-19 22:00 UTC. Time now 2017-Sep-19 22:21 UTC.
Position N 40°40' W 074°02'.

Length 152 m; draft 6.7 m.

Type: . MMSI: 367563930.

Date/timePositionNaut miles runAvg speedWind from/ knotsBaromVisibWave heightAir tempDewpointWater temp
2017-Sep-19 22:00N 40°40' W 074°02'0 0.1
2017-Sep-19 21:30N 40°40' W 074°02'0 0.0
2017-Sep-19 21:00N 40°40' W 074°02'0 0.1
2017-Sep-19 20:30N 40°40' W 074°02'0 0.0
2017-Sep-19 20:00N 40°40' W 074°02'0 0.0
2017-Sep-19 19:30N 40°40' W 074°03'0 0.0
2017-Sep-19 19:00N 40°40' W 074°03'0 0.0
2017-Sep-19 18:30N 40°40' W 074°03'0 0.0
2017-Sep-19 18:00N 40°40' W 074°02'0 0.0
2017-Sep-19 17:30N 40°40' W 074°02'0 0.0
2017-Sep-19 17:00N 40°40' W 074°03'0 0.0
2017-Sep-19 16:30N 40°40' W 074°03'0 0.0
2017-Sep-19 16:00N 40°40' W 074°03'0 0.0
2017-Sep-19 15:27N 40°40' W 074°03'0 0.1
2017-Sep-19 15:00N 40°40' W 074°03'0 0.1
2017-Sep-19 14:30N 40°40' W 074°03'0 0.0
2017-Sep-19 14:00N 40°40' W 074°02'0 0.1
2017-Sep-19 13:30N 40°40' W 074°03'0 0.1
2017-Sep-19 13:00N 40°40' W 074°03'0 0.2
2017-Sep-19 12:30N 40°40' W 074°02'0 0.1
2017-Sep-19 12:00N 40°40' W 074°02'0 0.1
2017-Sep-19 11:30N 40°40' W 074°02'0 0.1
2017-Sep-19 11:00N 40°40' W 074°03'0 0.2
2017-Sep-19 10:30N 40°40' W 074°03'0 0.0
2017-Sep-19 10:00N 40°40' W 074°03'0 0.1
2017-Sep-19 09:30N 40°40' W 074°02'0 0.1
2017-Sep-19 09:00N 40°40' W 074°03'0 0.0
2017-Sep-19 08:30N 40°40' W 074°03'0 0.0
2017-Sep-19 08:00N 40°40' W 074°02'0 0.0
2017-Sep-19 07:30N 40°40' W 074°03'0 0.0
2017-Sep-19 07:00N 40°40' W 074°03'0 0.0
2017-Sep-19 06:30N 40°40' W 074°03'0 0.0
2017-Sep-19 06:00N 40°40' W 074°02'0 0.0
2017-Sep-19 05:30N 40°40' W 074°02'0 0.0
2017-Sep-19 05:00N 40°40' W 074°02'0 0.0
2017-Sep-19 04:30N 40°40' W 074°02'0 0.0
2017-Sep-19 04:00N 40°40' W 074°03'0 0.0
2017-Sep-19 03:30N 40°40' W 074°03'0 0.0
2017-Sep-19 03:00N 40°40' W 074°02'0 0.0
2017-Sep-19 02:30N 40°40' W 074°02'0 0.5
2017-Sep-19 02:00N 40°40' W 074°02'1 2.4
2017-Sep-19 01:31N 40°41' W 074°01'4 8.0
2017-Sep-19 01:00N 40°44' W 073°58'4 7.5
2017-Sep-19 00:29N 40°47' W 073°55'3 6.5
2017-Sep-19 00:00N 40°48' W 073°51'3 6.0
2017-Sep-18 23:29N 40°49' W 073°47'3 6.3
2017-Sep-18 22:57N 40°52' W 073°45'48 7.2
2017-Sep-18 16:19N 41°06' W 072°44'3 8.0
2017-Sep-18 15:57N 41°07' W 072°40'4 7.7
2017-Sep-18 15:27N 41°08' W 072°35'3 7.4
2017-Sep-18 15:01N 41°09' W 072°31'4 7.9
2017-Sep-18 14:30N 41°10' W 072°26'4 8.2
2017-Sep-18 14:00N 41°11' W 072°21'4 8.5
2017-Sep-18 13:30N 41°12' W 072°15'50 8.6
2017-Sep-18 07:42N 41°38' W 071°18'2 9.9
2017-Sep-18 07:30N 41°39' W 071°19'5 9.1
2017-Sep-18 07:00N 41°44' W 071°21'5 8.8
2017-Sep-18 06:29N 41°48' W 071°23'0 0.1
2017-Sep-18 05:57N 41°48' W 071°23'0 0.0
2017-Sep-18 05:21N 41°48' W 071°23'0 0.0
2017-Sep-18 03:52N 41°48' W 071°23'0 0.0
2017-Sep-18 03:27N 41°48' W 071°23'0 0.0
2017-Sep-18 02:45N 41°48' W 071°23'0 0.0
2017-Sep-18 02:22N 41°48' W 071°23'0 0.0
2017-Sep-18 01:57N 41°48' W 071°23'0 0.0
2017-Sep-18 01:27N 41°48' W 071°23'0 0.0
2017-Sep-18 00:39N 41°48' W 071°23'0 0.0
2017-Sep-18 00:09N 41°48' W 071°23'0 0.0
2017-Sep-17 23:57N 41°48' W 071°23'0 0.0
2017-Sep-17 22:57N 41°48' W 071°23'0 0.0
2017-Sep-17 17:33N 41°48' W 071°23'0 0.0
2017-Sep-17 17:21N 41°48' W 071°23'0 0.0
2017-Sep-17 16:56N 41°48' W 071°23'0 0.0
2017-Sep-17 14:51N 41°48' W 071°23'0 0.0
2017-Sep-17 14:04N 41°48' W 071°23'0 0.0
2017-Sep-17 13:51N 41°48' W 071°23'0 0.0
2017-Sep-17 13:27N 41°48' W 071°23'0 0.0
2017-Sep-17 11:57N 41°48' W 071°23'0 0.0
2017-Sep-17 11:21N 41°48' W 071°23'0 0.0
2017-Sep-17 10:45N 41°48' W 071°23'0 0.0
2017-Sep-17 10:21N 41°48' W 071°23'0 0.0
2017-Sep-17 01:10N 41°48' W 071°23'0 0.2
2017-Sep-17 01:00N 41°48' W 071°23'2 3.2
2017-Sep-17 00:30N 41°46' W 071°22'4 8.0
2017-Sep-17 00:01N 41°43' W 071°20'4 8.6
2017-Sep-16 23:30N 41°39' W 071°18'4 7.4
2017-Sep-16 23:00N 41°35' W 071°19'4 8.3
2017-Sep-16 22:30N 41°31' W 071°21'3 7.0
2017-Sep-16 22:00N 41°28' W 071°22'4 8.4
2017-Sep-16 21:30N 41°24' W 071°24'5 9.3
2017-Sep-16 21:00N 41°20' W 071°27'4 8.1
2017-Sep-16 20:30N 41°18' W 071°32'4 9.0
2017-Sep-16 20:00N 41°17' W 071°37'5 9.3
2017-Sep-16 19:30N 41°16' W 071°44'1116.2
2017-Sep-16 18:49N 41°14' W 071°58'0 0.2
2017-Sep-16 18:23N 41°14' W 071°58'410.9
2017-Sep-16 18:00N 41°14' W 072°03'611.3
2017-Sep-16 17:30N 41°13' W 072°11'611.9
2017-Sep-16 17:00N 41°12' W 072°18'612.0
2017-Sep-16 16:30N 41°10' W 072°26'611.3
2017-Sep-16 16:00N 41°08' W 072°33'510.7
2017-Sep-16 15:30N 41°07' W 072°40'510.2
2017-Sep-16 15:00N 41°06' W 072°47'43 9.1
2017-Sep-16 10:17N 40°54' W 073°41'2 8.8
2017-Sep-16 10:00N 40°52' W 073°44'5 8.6
2017-Sep-16 09:28N 40°48' W 073°47'5 9.8
2017-Sep-16 08:59N 40°48' W 073°53'510.5
2017-Sep-16 08:30N 40°45' W 073°58'5 9.6
2017-Sep-16 08:00N 40°41' W 074°02'3 5.5
2017-Sep-16 07:28N 40°39' W 074°05'0 0.0
2017-Sep-16 06:58N 40°39' W 074°05'0 0.0
2017-Sep-16 06:28N 40°39' W 074°05'0 0.0
2017-Sep-16 05:58N 40°39' W 074°05'0 0.0
2017-Sep-16 05:28N 40°39' W 074°05'0 0.0
2017-Sep-16 04:58N 40°39' W 074°05'0 0.0
2017-Sep-16 04:28N 40°39' W 074°05'0 0.0
2017-Sep-16 03:58N 40°39' W 074°05'0 0.0
2017-Sep-16 03:28N 40°39' W 074°05'0 0.0
2017-Sep-16 02:58N 40°39' W 074°05'0 0.0
2017-Sep-16 02:28N 40°39' W 074°05'0 0.0
2017-Sep-16 02:01N 40°39' W 074°05'0 0.0
2017-Sep-16 01:28N 40°39' W 074°05'0 0.0
2017-Sep-16 00:58N 40°39' W 074°05'0 0.0
2017-Sep-16 00:28N 40°39' W 074°05'0 0.0
2017-Sep-16 00:01N 40°39' W 074°05'0 0.0
2017-Sep-15 23:28N 40°39' W 074°05'0 0.0
2017-Sep-15 23:01N 40°39' W 074°05'0 0.0
2017-Sep-15 22:31N 40°39' W 074°05'0 0.0
2017-Sep-15 22:01N 40°39' W 074°05'0 0.0
2017-Sep-15 21:28N 40°39' W 074°05'0 0.0
2017-Sep-15 20:58N 40°39' W 074°05'0 0.0
2017-Sep-15 20:28N 40°39' W 074°05'0 0.0
2017-Sep-15 19:58N 40°39' W 074°05'0 0.0
2017-Sep-15 19:28N 40°39' W 074°05'0 0.0
2017-Sep-15 18:58N 40°39' W 074°05'0 0.0
2017-Sep-15 18:27N 40°39' W 074°05'0 0.0
2017-Sep-15 17:58N 40°39' W 074°05'0 0.0
2017-Sep-15 17:28N 40°39' W 074°05'0 0.0
2017-Sep-15 16:55N 40°39' W 074°05'0 0.0
2017-Sep-15 16:28N 40°39' W 074°05'0 0.0
2017-Sep-15 16:00N 40°39' W 074°05'1 2.9
2017-Sep-15 15:31N 40°39' W 074°07'1 1.3
2017-Sep-15 15:00N 40°38' W 074°08'0 0.0
2017-Sep-15 14:30N 40°38' W 074°08'0 0.0
2017-Sep-15 14:00N 40°38' W 074°08'0 0.0
2017-Sep-15 13:30N 40°38' W 074°08'0 0.0
2017-Sep-15 13:00N 40°38' W 074°08'0 0.0
2017-Sep-15 12:30N 40°38' W 074°08'0 0.0
2017-Sep-15 12:00N 40°38' W 074°08'0 0.0
2017-Sep-15 11:30N 40°38' W 074°08'0 0.0
2017-Sep-15 11:00N 40°38' W 074°08'0 0.0
2017-Sep-15 10:27N 40°38' W 074°08'0 0.0
2017-Sep-15 10:00N 40°38' W 074°08'2 4.1
2017-Sep-15 09:29N 40°39' W 074°05'0 0.0
2017-Sep-15 09:00N 40°39' W 074°05'0 0.1
2017-Sep-15 08:30N 40°39' W 074°05'0 0.1
2017-Sep-15 08:01N 40°39' W 074°05'0 0.1
2017-Sep-15 07:30N 40°39' W 074°05'2 4.1
2017-Sep-15 07:00N 40°40' W 074°02'0 0.1
2017-Sep-15 06:28N 40°40' W 074°02'0 0.1
2017-Sep-15 06:01N 40°40' W 074°02'0 0.1
2017-Sep-15 05:31N 40°40' W 074°02'0 0.2
2017-Sep-15 04:58N 40°39' W 074°02'0 0.1
2017-Sep-15 04:28N 40°39' W 074°02'0 0.1
2017-Sep-15 03:58N 40°39' W 074°02'0 0.0
2017-Sep-15 03:31N 40°39' W 074°02'0 0.1
2017-Sep-15 03:01N 40°39' W 074°02'0 0.0
2017-Sep-15 02:28N 40°39' W 074°02'0 0.0
2017-Sep-15 02:01N 40°39' W 074°02'0 0.0
2017-Sep-15 01:28N 40°39' W 074°02'0 0.0
2017-Sep-15 01:01N 40°39' W 074°02'0 0.0
2017-Sep-15 00:28N 40°39' W 074°02'0 0.0
2017-Sep-14 23:58N 40°39' W 074°02'2 5.0
2017-Sep-14 23:30N 40°39' W 074°05'5 9.1
2017-Sep-14 23:00N 40°39' W 074°11'4 6.8
2017-Sep-14 22:29N 40°35' W 074°12'3 6.0
2017-Sep-14 22:00N 40°33' W 074°15'1 0.5
2017-Sep-14 20:29N 40°32' W 074°15'1 0.8
2017-Sep-14 19:40N 40°33' W 074°15'0 0.0
2017-Sep-14 19:28N 40°33' W 074°15'0 0.0
2017-Sep-14 18:58N 40°33' W 074°15'0 0.0
2017-Sep-14 18:22N 40°33' W 074°15'0 0.0
2017-Sep-14 17:58N 40°33' W 074°15'0 0.0
2017-Sep-14 17:22N 40°33' W 074°15'0 0.0
2017-Sep-14 16:46N 40°33' W 074°15'0 1.5
2017-Sep-14 16:30N 40°32' W 074°15'1 1.4
2017-Sep-14 16:00N 40°33' W 074°15'4 8.4
2017-Sep-14 15:30N 40°37' W 074°12'2 3.0
2017-Sep-14 14:59N 40°38' W 074°12'0 0.0
2017-Sep-14 14:29N 40°38' W 074°12'0 0.0
2017-Sep-14 13:56N 40°38' W 074°12'0 0.0
2017-Sep-14 13:29N 40°38' W 074°12'0 0.0
2017-Sep-14 12:59N 40°38' W 074°12'0 0.0
2017-Sep-14 12:29N 40°38' W 074°12'0 0.0
2017-Sep-14 11:59N 40°38' W 074°12'0 0.0
2017-Sep-14 11:26N 40°38' W 074°12'0 0.0
2017-Sep-14 11:00N 40°38' W 074°12'4 7.5
2017-Sep-14 10:30N 40°35' W 074°13'3 0.7
2017-Sep-14 06:03N 40°32' W 074°15'0 0.1
2017-Sep-14 05:58N 40°32' W 074°15'0 0.1
2017-Sep-14 05:29N 40°32' W 074°15'3 5.7
2017-Sep-14 05:00N 40°34' W 074°13'4 7.6
2017-Sep-14 04:30N 40°38' W 074°12'4 9.1
2017-Sep-14 04:01N 40°39' W 074°06'5 9.6
2017-Sep-14 03:30N 40°42' W 074°02'611.7
2017-Sep-14 03:00N 40°48' W 073°59'612.2
2017-Sep-14 02:30N 40°53' W 073°56'  
2017-Sep-11 15:40N 40°59' W 073°54'210.3
2017-Sep-11 15:30N 40°57' W 073°54'5 9.9
2017-Sep-11 15:00N 40°52' W 073°56'5 9.8
2017-Sep-11 14:30N 40°48' W 073°59'4 9.2
2017-Sep-11 14:01N 40°44' W 074°01'4 8.9
2017-Sep-11 13:30N 40°39' W 074°03'3 6.3
2017-Sep-11 13:00N 40°39' W 074°07'3 5.6
2017-Sep-11 12:31N 40°39' W 074°11'2 2.6
2017-Sep-11 11:53N 40°38' W 074°12'0 0.0
2017-Sep-11 10:23N 40°38' W 074°12'0 0.0
2017-Sep-11 09:59N 40°38' W 074°12'0 0.0
2017-Sep-11 09:29N 40°38' W 074°12'0 0.0
2017-Sep-11 08:47N 40°38' W 074°12'0 0.0
2017-Sep-11 08:29N 40°38' W 074°12'0 0.0
2017-Sep-11 06:17N 40°38' W 074°12'0 0.0
2017-Sep-11 05:35N 40°38' W 074°12'0 0.0
2017-Sep-11 05:11N 40°38' W 074°12'0 0.0
2017-Sep-11 04:59N 40°38' W 074°12'0 0.0
2017-Sep-11 04:29N 40°38' W 074°12'0 0.0
2017-Sep-11 03:53N 40°38' W 074°12'0 0.0
2017-Sep-11 03:17N 40°38' W 074°12'0 0.0
2017-Sep-11 02:59N 40°38' W 074°12'0 0.0
2017-Sep-11 02:17N 40°38' W 074°12'0 0.0
2017-Sep-11 01:59N 40°38' W 074°12'0 0.0
2017-Sep-11 01:08N 40°38' W 074°12'0 0.0
2017-Sep-11 00:56N 40°38' W 074°12'0 0.0
2017-Sep-11 00:26N 40°38' W 074°12'0 0.0
2017-Sep-10 23:53N 40°38' W 074°12'0 0.0
2017-Sep-10 23:29N 40°38' W 074°12'0 0.0
2017-Sep-10 21:53N 40°38' W 074°12'0 0.0
2017-Sep-10 21:26N 40°38' W 074°12'0 0.0
2017-Sep-10 20:53N 40°38' W 074°12'0 0.0
2017-Sep-10 20:05N 40°38' W 074°12'0 0.0
2017-Sep-10 19:59N 40°38' W 074°12'0 0.0
2017-Sep-10 19:29N 40°38' W 074°12'0 0.0
2017-Sep-10 17:59N 40°38' W 074°12'0 0.0
2017-Sep-10 17:29N 40°38' W 074°12'0 0.0
2017-Sep-10 16:59N 40°38' W 074°12'0 0.0
2017-Sep-10 16:29N 40°38' W 074°12'0 0.0
2017-Sep-10 15:53N 40°38' W 074°12'0 0.0
2017-Sep-10 15:29N 40°38' W 074°12'0 0.0
2017-Sep-10 14:53N 40°38' W 074°12'0 0.0
2017-Sep-10 13:59N 40°38' W 074°12'0 0.0
2017-Sep-10 13:29N 40°38' W 074°12'0 0.0
2017-Sep-10 12:41N 40°38' W 074°12'0 0.0
2017-Sep-10 12:29N 40°38' W 074°12'0 0.0
2017-Sep-10 11:59N 40°38' W 074°12'0 0.0
2017-Sep-10 11:11N 40°38' W 074°12'0 0.0
2017-Sep-10 10:59N 40°38' W 074°12'0 0.0
2017-Sep-10 10:29N 40°38' W 074°12'0 0.0
2017-Sep-10 09:59N 40°38' W 074°12'0 0.0
2017-Sep-10 09:29N 40°38' W 074°12'0 0.0
2017-Sep-10 08:53N 40°38' W 074°12'0 0.0
2017-Sep-10 08:29N 40°38' W 074°12'0 0.0
2017-Sep-10 07:59N 40°38' W 074°12'0 0.0
2017-Sep-10 07:11N 40°38' W 074°12'0 0.0
2017-Sep-10 06:59N 40°38' W 074°12'0 0.0
2017-Sep-10 06:29N 40°38' W 074°12'0 0.0
2017-Sep-10 05:53N 40°38' W 074°12'0 0.0
2017-Sep-10 05:29N 40°38' W 074°12'0 0.0
2017-Sep-10 04:59N 40°38' W 074°12'0 0.0
2017-Sep-10 04:30N 40°38' W 074°12'2 4.1
2017-Sep-10 04:00N 40°39' W 074°10'3 6.7
2017-Sep-10 03:30N 40°39' W 074°06'3 6.6
2017-Sep-10 03:01N 40°41' W 074°02'3 5.1
2017-Sep-10 02:30N 40°43' W 074°01'3 5.4
2017-Sep-10 02:00N 40°46' W 074°01'3 5.6
2017-Sep-10 01:31N 40°48' W 073°59'3 5.8
2017-Sep-10 01:01N 40°51' W 073°57'3 6.3
2017-Sep-10 00:29N 40°54' W 073°55'3 7.0
2017-Sep-10 00:00N 40°57' W 073°54'  
Track history (hours):
 
Tides and Currents Weather Stations Pressure Air Temp Water Temp Dewpoint Dewpoint Depression Visibility Wind Speed Wind Dir Waves Ship Positions

Dean Reinauer

Owner: REINAUER TRANSPORTATION CO.,LLC., STATEN ISLAND, NY. More information available from US FCC via Universal Licensing System and Coast Guard Vessel Documentation Center.

Last reported at 2017-Sep-19 22:00 UTC. Time now 2017-Sep-19 22:21 UTC.
Position N 40°40' W 074°02'.

Length 152 m; draft 6.7 m.

Type: . MMSI: 367563930.

Date/timePositionNaut miles runAvg speedWind from/ knotsBaromVisibWave heightAir tempDewpointWater temp
2017-Sep-19 22:00N 40°40' W 074°02'0 0.1
2017-Sep-19 21:30N 40°40' W 074°02'0 0.0
2017-Sep-19 21:00N 40°40' W 074°02'0 0.1
2017-Sep-19 20:30N 40°40' W 074°02'0 0.0
2017-Sep-19 20:00N 40°40' W 074°02'0 0.0
2017-Sep-19 19:30N 40°40' W 074°03'0 0.0
2017-Sep-19 19:00N 40°40' W 074°03'0 0.0
2017-Sep-19 18:30N 40°40' W 074°03'0 0.0
2017-Sep-19 18:00N 40°40' W 074°02'0 0.0
2017-Sep-19 17:30N 40°40' W 074°02'0 0.0
2017-Sep-19 17:00N 40°40' W 074°03'0 0.0
2017-Sep-19 16:30N 40°40' W 074°03'0 0.0
2017-Sep-19 16:00N 40°40' W 074°03'0 0.0
2017-Sep-19 15:27N 40°40' W 074°03'0 0.1
2017-Sep-19 15:00N 40°40' W 074°03'0 0.1
2017-Sep-19 14:30N 40°40' W 074°03'0 0.0
2017-Sep-19 14:00N 40°40' W 074°02'0 0.1
2017-Sep-19 13:30N 40°40' W 074°03'0 0.1
2017-Sep-19 13:00N 40°40' W 074°03'0 0.2
2017-Sep-19 12:30N 40°40' W 074°02'0 0.1
2017-Sep-19 12:00N 40°40' W 074°02'0 0.1
2017-Sep-19 11:30N 40°40' W 074°02'0 0.1
2017-Sep-19 11:00N 40°40' W 074°03'0 0.2
2017-Sep-19 10:30N 40°40' W 074°03'0 0.0
2017-Sep-19 10:00N 40°40' W 074°03'0 0.1
2017-Sep-19 09:30N 40°40' W 074°02'0 0.1
2017-Sep-19 09:00N 40°40' W 074°03'0 0.0
2017-Sep-19 08:30N 40°40' W 074°03'0 0.0
2017-Sep-19 08:00N 40°40' W 074°02'0 0.0
2017-Sep-19 07:30N 40°40' W 074°03'0 0.0
2017-Sep-19 07:00N 40°40' W 074°03'0 0.0
2017-Sep-19 06:30N 40°40' W 074°03'0 0.0
2017-Sep-19 06:00N 40°40' W 074°02'0 0.0
2017-Sep-19 05:30N 40°40' W 074°02'0 0.0
2017-Sep-19 05:00N 40°40' W 074°02'0 0.0
2017-Sep-19 04:30N 40°40' W 074°02'0 0.0
2017-Sep-19 04:00N 40°40' W 074°03'0 0.0
2017-Sep-19 03:30N 40°40' W 074°03'0 0.0
2017-Sep-19 03:00N 40°40' W 074°02'0 0.0
2017-Sep-19 02:30N 40°40' W 074°02'0 0.5
2017-Sep-19 02:00N 40°40' W 074°02'1 2.4
2017-Sep-19 01:31N 40°41' W 074°01'4 8.0
2017-Sep-19 01:00N 40°44' W 073°58'4 7.5
2017-Sep-19 00:29N 40°47' W 073°55'3 6.5
2017-Sep-19 00:00N 40°48' W 073°51'3 6.0
2017-Sep-18 23:29N 40°49' W 073°47'3 6.3
2017-Sep-18 22:57N 40°52' W 073°45'48 7.2
2017-Sep-18 16:19N 41°06' W 072°44'3 8.0
2017-Sep-18 15:57N 41°07' W 072°40'4 7.7
2017-Sep-18 15:27N 41°08' W 072°35'3 7.4
2017-Sep-18 15:01N 41°09' W 072°31'4 7.9
2017-Sep-18 14:30N 41°10' W 072°26'4 8.2
2017-Sep-18 14:00N 41°11' W 072°21'4 8.5
2017-Sep-18 13:30N 41°12' W 072°15'50 8.6
2017-Sep-18 07:42N 41°38' W 071°18'2 9.9
2017-Sep-18 07:30N 41°39' W 071°19'5 9.1
2017-Sep-18 07:00N 41°44' W 071°21'5 8.8
2017-Sep-18 06:29N 41°48' W 071°23'0 0.1
2017-Sep-18 05:57N 41°48' W 071°23'0 0.0
2017-Sep-18 05:21N 41°48' W 071°23'0 0.0
2017-Sep-18 03:52N 41°48' W 071°23'0 0.0
2017-Sep-18 03:27N 41°48' W 071°23'0 0.0
2017-Sep-18 02:45N 41°48' W 071°23'0 0.0
2017-Sep-18 02:22N 41°48' W 071°23'0 0.0
2017-Sep-18 01:57N 41°48' W 071°23'0 0.0
2017-Sep-18 01:27N 41°48' W 071°23'0 0.0
2017-Sep-18 00:39N 41°48' W 071°23'0 0.0
2017-Sep-18 00:09N 41°48' W 071°23'0 0.0
2017-Sep-17 23:57N 41°48' W 071°23'0 0.0
2017-Sep-17 22:57N 41°48' W 071°23'0 0.0
2017-Sep-17 17:33N 41°48' W 071°23'0 0.0
2017-Sep-17 17:21N 41°48' W 071°23'0 0.0
2017-Sep-17 16:56N 41°48' W 071°23'0 0.0
2017-Sep-17 14:51N 41°48' W 071°23'0 0.0
2017-Sep-17 14:04N 41°48' W 071°23'0 0.0
2017-Sep-17 13:51N 41°48' W 071°23'0 0.0
2017-Sep-17 13:27N 41°48' W 071°23'0 0.0
2017-Sep-17 11:57N 41°48' W 071°23'0 0.0
2017-Sep-17 11:21N 41°48' W 071°23'0 0.0
2017-Sep-17 10:45N 41°48' W 071°23'0 0.0
2017-Sep-17 10:21N 41°48' W 071°23'0 0.0
2017-Sep-17 01:10N 41°48' W 071°23'0 0.2
2017-Sep-17 01:00N 41°48' W 071°23'2 3.2
2017-Sep-17 00:30N 41°46' W 071°22'4 8.0
2017-Sep-17 00:01N 41°43' W 071°20'4 8.6
2017-Sep-16 23:30N 41°39' W 071°18'4 7.4
2017-Sep-16 23:00N 41°35' W 071°19'4 8.3
2017-Sep-16 22:30N 41°31' W 071°21'3 7.0
2017-Sep-16 22:00N 41°28' W 071°22'4 8.4
2017-Sep-16 21:30N 41°24' W 071°24'5 9.3
2017-Sep-16 21:00N 41°20' W 071°27'4 8.1
2017-Sep-16 20:30N 41°18' W 071°32'4 9.0
2017-Sep-16 20:00N 41°17' W 071°37'5 9.3
2017-Sep-16 19:30N 41°16' W 071°44'1116.2
2017-Sep-16 18:49N 41°14' W 071°58'0 0.2
2017-Sep-16 18:23N 41°14' W 071°58'410.9
2017-Sep-16 18:00N 41°14' W 072°03'611.3
2017-Sep-16 17:30N 41°13' W 072°11'611.9
2017-Sep-16 17:00N 41°12' W 072°18'612.0
2017-Sep-16 16:30N 41°10' W 072°26'611.3
2017-Sep-16 16:00N 41°08' W 072°33'510.7
2017-Sep-16 15:30N 41°07' W 072°40'510.2
2017-Sep-16 15:00N 41°06' W 072°47'43 9.1
2017-Sep-16 10:17N 40°54' W 073°41'2 8.8
2017-Sep-16 10:00N 40°52' W 073°44'5 8.6
2017-Sep-16 09:28N 40°48' W 073°47'5 9.8
2017-Sep-16 08:59N 40°48' W 073°53'510.5
2017-Sep-16 08:30N 40°45' W 073°58'5 9.6
2017-Sep-16 08:00N 40°41' W 074°02'3 5.5
2017-Sep-16 07:28N 40°39' W 074°05'0 0.0
2017-Sep-16 06:58N 40°39' W 074°05'0 0.0
2017-Sep-16 06:28N 40°39' W 074°05'0 0.0
2017-Sep-16 05:58N 40°39' W 074°05'0 0.0
2017-Sep-16 05:28N 40°39' W 074°05'0 0.0
2017-Sep-16 04:58N 40°39' W 074°05'0 0.0
2017-Sep-16 04:28N 40°39' W 074°05'0 0.0
2017-Sep-16 03:58N 40°39' W 074°05'0 0.0
2017-Sep-16 03:28N 40°39' W 074°05'0 0.0
2017-Sep-16 02:58N 40°39' W 074°05'0 0.0
2017-Sep-16 02:28N 40°39' W 074°05'0 0.0
2017-Sep-16 02:01N 40°39' W 074°05'0 0.0
2017-Sep-16 01:28N 40°39' W 074°05'0 0.0
2017-Sep-16 00:58N 40°39' W 074°05'0 0.0
2017-Sep-16 00:28N 40°39' W 074°05'0 0.0
2017-Sep-16 00:01N 40°39' W 074°05'0 0.0
2017-Sep-15 23:28N 40°39' W 074°05'0 0.0
2017-Sep-15 23:01N 40°39' W 074°05'0 0.0
2017-Sep-15 22:31N 40°39' W 074°05'0 0.0
2017-Sep-15 22:01N 40°39' W 074°05'0 0.0
2017-Sep-15 21:28N 40°39' W 074°05'0 0.0
2017-Sep-15 20:58N 40°39' W 074°05'0 0.0
2017-Sep-15 20:28N 40°39' W 074°05'0 0.0
2017-Sep-15 19:58N 40°39' W 074°05'0 0.0
2017-Sep-15 19:28N 40°39' W 074°05'0 0.0
2017-Sep-15 18:58N 40°39' W 074°05'0 0.0
2017-Sep-15 18:27N 40°39' W 074°05'0 0.0
2017-Sep-15 17:58N 40°39' W 074°05'0 0.0
2017-Sep-15 17:28N 40°39' W 074°05'0 0.0
2017-Sep-15 16:55N 40°39' W 074°05'0 0.0
2017-Sep-15 16:28N 40°39' W 074°05'0 0.0
2017-Sep-15 16:00N 40°39' W 074°05'1 2.9
2017-Sep-15 15:31N 40°39' W 074°07'1 1.3
2017-Sep-15 15:00N 40°38' W 074°08'0 0.0
2017-Sep-15 14:30N 40°38' W 074°08'0 0.0
2017-Sep-15 14:00N 40°38' W 074°08'0 0.0
2017-Sep-15 13:30N 40°38' W 074°08'0 0.0
2017-Sep-15 13:00N 40°38' W 074°08'0 0.0
2017-Sep-15 12:30N 40°38' W 074°08'0 0.0
2017-Sep-15 12:00N 40°38' W 074°08'0 0.0
2017-Sep-15 11:30N 40°38' W 074°08'0 0.0
2017-Sep-15 11:00N 40°38' W 074°08'0 0.0
2017-Sep-15 10:27N 40°38' W 074°08'0 0.0
2017-Sep-15 10:00N 40°38' W 074°08'2 4.1
2017-Sep-15 09:29N 40°39' W 074°05'0 0.0
2017-Sep-15 09:00N 40°39' W 074°05'0 0.1
2017-Sep-15 08:30N 40°39' W 074°05'0 0.1
2017-Sep-15 08:01N 40°39' W 074°05'0 0.1
2017-Sep-15 07:30N 40°39' W 074°05'2 4.1
2017-Sep-15 07:00N 40°40' W 074°02'0 0.1
2017-Sep-15 06:28N 40°40' W 074°02'0 0.1
2017-Sep-15 06:01N 40°40' W 074°02'0 0.1
2017-Sep-15 05:31N 40°40' W 074°02'0 0.2
2017-Sep-15 04:58N 40°39' W 074°02'0 0.1
2017-Sep-15 04:28N 40°39' W 074°02'0 0.1
2017-Sep-15 03:58N 40°39' W 074°02'0 0.0
2017-Sep-15 03:31N 40°39' W 074°02'0 0.1
2017-Sep-15 03:01N 40°39' W 074°02'0 0.0
2017-Sep-15 02:28N 40°39' W 074°02'0 0.0
2017-Sep-15 02:01N 40°39' W 074°02'0 0.0
2017-Sep-15 01:28N 40°39' W 074°02'0 0.0
2017-Sep-15 01:01N 40°39' W 074°02'0 0.0
2017-Sep-15 00:28N 40°39' W 074°02'0 0.0
2017-Sep-14 23:58N 40°39' W 074°02'2 5.0
2017-Sep-14 23:30N 40°39' W 074°05'5 9.1
2017-Sep-14 23:00N 40°39' W 074°11'4 6.8
2017-Sep-14 22:29N 40°35' W 074°12'3 6.0
2017-Sep-14 22:00N 40°33' W 074°15'1 0.5
2017-Sep-14 20:29N 40°32' W 074°15'1 0.8
2017-Sep-14 19:40N 40°33' W 074°15'0 0.0
2017-Sep-14 19:28N 40°33' W 074°15'0 0.0
2017-Sep-14 18:58N 40°33' W 074°15'0 0.0
2017-Sep-14 18:22N 40°33' W 074°15'0 0.0
2017-Sep-14 17:58N 40°33' W 074°15'0 0.0
2017-Sep-14 17:22N 40°33' W 074°15'0 0.0
2017-Sep-14 16:46N 40°33' W 074°15'0 1.5
2017-Sep-14 16:30N 40°32' W 074°15'1 1.4
2017-Sep-14 16:00N 40°33' W 074°15'4 8.4
2017-Sep-14 15:30N 40°37' W 074°12'2 3.0
2017-Sep-14 14:59N 40°38' W 074°12'0 0.0
2017-Sep-14 14:29N 40°38' W 074°12'0 0.0
2017-Sep-14 13:56N 40°38' W 074°12'0 0.0
2017-Sep-14 13:29N 40°38' W 074°12'0 0.0
2017-Sep-14 12:59N 40°38' W 074°12'0 0.0
2017-Sep-14 12:29N 40°38' W 074°12'0 0.0
2017-Sep-14 11:59N 40°38' W 074°12'0 0.0
2017-Sep-14 11:26N 40°38' W 074°12'0 0.0
2017-Sep-14 11:00N 40°38' W 074°12'4 7.5
2017-Sep-14 10:30N 40°35' W 074°13'3 0.7
2017-Sep-14 06:03N 40°32' W 074°15'0 0.1
2017-Sep-14 05:58N 40°32' W 074°15'0 0.1
2017-Sep-14 05:29N 40°32' W 074°15'3 5.7
2017-Sep-14 05:00N 40°34' W 074°13'4 7.6
2017-Sep-14 04:30N 40°38' W 074°12'4 9.1
2017-Sep-14 04:01N 40°39' W 074°06'5 9.6
2017-Sep-14 03:30N 40°42' W 074°02'611.7
2017-Sep-14 03:00N 40°48' W 073°59'612.2
2017-Sep-14 02:30N 40°53' W 073°56'  
2017-Sep-11 15:40N 40°59' W 073°54'210.3
2017-Sep-11 15:30N 40°57' W 073°54'5 9.9
2017-Sep-11 15:00N 40°52' W 073°56'5 9.8
2017-Sep-11 14:30N 40°48' W 073°59'4 9.2
2017-Sep-11 14:01N 40°44' W 074°01'4 8.9
2017-Sep-11 13:30N 40°39' W 074°03'3 6.3
2017-Sep-11 13:00N 40°39' W 074°07'3 5.6
2017-Sep-11 12:31N 40°39' W 074°11'2 2.6
2017-Sep-11 11:53N 40°38' W 074°12'0 0.0
2017-Sep-11 10:23N 40°38' W 074°12'0 0.0
2017-Sep-11 09:59N 40°38' W 074°12'0 0.0
2017-Sep-11 09:29N 40°38' W 074°12'0 0.0
2017-Sep-11 08:47N 40°38' W 074°12'0 0.0
2017-Sep-11 08:29N 40°38' W 074°12'0 0.0
2017-Sep-11 06:17N 40°38' W 074°12'0 0.0
2017-Sep-11 05:35N 40°38' W 074°12'0 0.0
2017-Sep-11 05:11N 40°38' W 074°12'0 0.0
2017-Sep-11 04:59N 40°38' W 074°12'0 0.0
2017-Sep-11 04:29N 40°38' W 074°12'0 0.0
2017-Sep-11 03:53N 40°38' W 074°12'0 0.0
2017-Sep-11 03:17N 40°38' W 074°12'0 0.0
2017-Sep-11 02:59N 40°38' W 074°12'0 0.0
2017-Sep-11 02:17N 40°38' W 074°12'0 0.0
2017-Sep-11 01:59N 40°38' W 074°12'0 0.0
2017-Sep-11 01:08N 40°38' W 074°12'0 0.0
2017-Sep-11 00:56N 40°38' W 074°12'0 0.0
2017-Sep-11 00:26N 40°38' W 074°12'0 0.0
2017-Sep-10 23:53N 40°38' W 074°12'0 0.0
2017-Sep-10 23:29N 40°38' W 074°12'0 0.0
2017-Sep-10 21:53N 40°38' W 074°12'0 0.0
2017-Sep-10 21:26N 40°38' W 074°12'0 0.0
2017-Sep-10 20:53N 40°38' W 074°12'0 0.0
2017-Sep-10 20:05N 40°38' W 074°12'0 0.0
2017-Sep-10 19:59N 40°38' W 074°12'0 0.0
2017-Sep-10 19:29N 40°38' W 074°12'0 0.0
2017-Sep-10 17:59N 40°38' W 074°12'0 0.0
2017-Sep-10 17:29N 40°38' W 074°12'0 0.0
2017-Sep-10 16:59N 40°38' W 074°12'0 0.0
2017-Sep-10 16:29N 40°38' W 074°12'0 0.0
2017-Sep-10 15:53N 40°38' W 074°12'0 0.0
2017-Sep-10 15:29N 40°38' W 074°12'0 0.0
2017-Sep-10 14:53N 40°38' W 074°12'0 0.0
2017-Sep-10 13:59N 40°38' W 074°12'0 0.0
2017-Sep-10 13:29N 40°38' W 074°12'0 0.0
2017-Sep-10 12:41N 40°38' W 074°12'0 0.0
2017-Sep-10 12:29N 40°38' W 074°12'0 0.0
2017-Sep-10 11:59N 40°38' W 074°12'0 0.0
2017-Sep-10 11:11N 40°38' W 074°12'0 0.0
2017-Sep-10 10:59N 40°38' W 074°12'0 0.0
2017-Sep-10 10:29N 40°38' W 074°12'0 0.0
2017-Sep-10 09:59N 40°38' W 074°12'0 0.0
2017-Sep-10 09:29N 40°38' W 074°12'0 0.0
2017-Sep-10 08:53N 40°38' W 074°12'0 0.0
2017-Sep-10 08:29N 40°38' W 074°12'0 0.0
2017-Sep-10 07:59N 40°38' W 074°12'0 0.0
2017-Sep-10 07:11N 40°38' W 074°12'0 0.0
2017-Sep-10 06:59N 40°38' W 074°12'0 0.0
2017-Sep-10 06:29N 40°38' W 074°12'0 0.0
2017-Sep-10 05:53N 40°38' W 074°12'0 0.0
2017-Sep-10 05:29N 40°38' W 074°12'0 0.0
2017-Sep-10 04:59N 40°38' W 074°12'0 0.0
2017-Sep-10 04:30N 40°38' W 074°12'2 4.1
2017-Sep-10 04:00N 40°39' W 074°10'3 6.7
2017-Sep-10 03:30N 40°39' W 074°06'3 6.6
2017-Sep-10 03:01N 40°41' W 074°02'3 5.1
2017-Sep-10 02:30N 40°43' W 074°01'3 5.4
2017-Sep-10 02:00N 40°46' W 074°01'3 5.6
2017-Sep-10 01:31N 40°48' W 073°59'3 5.8
2017-Sep-10 01:01N 40°51' W 073°57'3 6.3
2017-Sep-10 00:29N 40°54' W 073°55'3 7.0
2017-Sep-10 00:00N 40°57' W 073°54'  

Dump ship's entire track history